createdAt,value
2019-02-25T00:01:07.411Z,5.43
2019-02-25T00:02:33.114Z,5.19
2019-02-25T00:03:39.006Z,5.22
2019-02-25T00:04:45.397Z,5.53
2019-02-25T00:05:51.863Z,5.60
2019-02-25T00:06:57.861Z,5.47
2019-02-25T00:08:05.046Z,5.24
2019-02-25T00:09:10.759Z,5.11
2019-02-25T00:10:17.756Z,5.41
2019-02-25T00:11:24.032Z,5.60
2019-02-25T00:12:30.320Z,5.54
2019-02-25T00:13:36.602Z,5.33
2019-02-25T00:14:43.203Z,5.15
2019-02-25T00:15:49.097Z,5.23
2019-02-25T00:16:55.922Z,5.50
2019-02-25T00:18:02.808Z,5.57
2019-02-25T00:19:08.572Z,5.41
2019-02-25T00:20:15.878Z,5.19
2019-02-25T00:21:23.309Z,5.16
2019-02-25T00:22:29.593Z,5.43
2019-02-25T00:23:36.535Z,5.57
2019-02-25T00:24:42.915Z,5.47
2019-02-25T00:25:49.054Z,5.24
2019-02-25T00:26:55.024Z,5.11
2019-02-25T00:28:02.688Z,5.36
2019-02-25T00:29:09.819Z,5.60
2019-02-25T00:30:17.709Z,5.54
2019-02-25T00:31:23.604Z,5.36
2019-02-25T00:32:30.342Z,5.15
2019-02-25T00:33:37.019Z,5.19
2019-02-25T00:34:42.988Z,5.47
2019-02-25T00:35:49.688Z,5.51
2019-02-25T00:36:56.314Z,5.37
2019-02-25T00:38:02.857Z,5.15
2019-02-25T00:39:09.875Z,5.16
2019-02-25T00:40:16.820Z,5.43
2019-02-25T00:41:23.430Z,5.56
2019-02-25T00:42:30.360Z,5.39
2019-02-25T00:43:37.105Z,5.19
2019-02-25T00:44:43.141Z,5.13
2019-02-25T00:45:50.640Z,5.36
2019-02-25T00:46:57.976Z,5.50
2019-02-25T00:48:04.187Z,5.39
2019-02-25T00:49:11.550Z,5.15
2019-02-25T00:50:21.769Z,5.11
2019-02-25T00:51:27.622Z,5.37
2019-02-25T00:52:34.467Z,5.53
2019-02-25T00:53:40.814Z,5.44
2019-02-25T00:54:47.418Z,5.23
2019-02-25T00:55:54.620Z,5.08
2019-02-25T00:57:01.221Z,5.29
2019-02-25T00:58:08.100Z,5.54
2019-02-25T00:59:14.770Z,5.50
2019-02-25T01:00:24.743Z,5.29
2019-02-25T01:01:31.070Z,5.06
2019-02-25T01:02:37.557Z,5.23
2019-02-25T01:03:43.468Z,5.53
2019-02-25T01:04:49.905Z,5.56
2019-02-25T01:05:56.795Z,5.37
2019-02-25T01:07:03.529Z,5.15
2019-02-25T01:08:10.462Z,5.16
2019-02-25T01:09:16.749Z,5.46
2019-02-25T01:10:23.160Z,5.50
2019-02-25T01:11:28.880Z,5.29
2019-02-25T01:12:35.771Z,5.11
2019-02-25T01:13:41.989Z,5.19
2019-02-25T01:14:49.022Z,5.49
2019-02-25T01:15:56.338Z,5.50
2019-02-25T01:17:02.175Z,5.32
2019-02-25T01:18:08.233Z,5.09
2019-02-25T01:19:15.451Z,5.19
2019-02-25T01:20:21.347Z,5.46
2019-02-25T01:21:28.197Z,5.46
2019-02-25T01:22:35.028Z,5.27
2019-02-25T01:23:41.667Z,5.09
2019-02-25T01:24:48.848Z,5.22
2019-02-25T01:25:54.874Z,5.51
2019-02-25T01:27:01.500Z,5.50
2019-02-25T01:28:08.356Z,5.26
2019-02-25T01:29:14.038Z,5.06
2019-02-25T01:30:21.837Z,5.19
2019-02-25T01:31:28.946Z,5.49
2019-02-25T01:32:34.656Z,5.46
2019-02-25T01:33:40.907Z,5.29
2019-02-25T01:34:47.263Z,5.08
2019-02-25T01:35:53.502Z,5.20
2019-02-25T01:37:01.096Z,5.46
2019-02-25T01:38:07.349Z,5.44
2019-02-25T01:39:14.923Z,5.24
2019-02-25T01:40:21.769Z,5.05
2019-02-25T01:41:28.629Z,5.19
2019-02-25T01:42:36.129Z,5.44
2019-02-25T01:43:42.579Z,5.43
2019-02-25T01:44:48.535Z,5.19
2019-02-25T01:45:55.311Z,5.09
2019-02-25T01:47:03.175Z,5.34
2019-02-25T01:48:09.245Z,5.47
2019-02-25T01:49:15.797Z,5.33
2019-02-25T01:50:22.749Z,5.12
2019-02-25T01:51:28.722Z,5.12
2019-02-25T01:52:35.074Z,5.39
2019-02-25T01:53:40.957Z,5.43
2019-02-25T01:54:47.139Z,5.23
2019-02-25T01:55:53.914Z,5.09
2019-02-25T01:57:00.295Z,5.26
2019-02-25T01:58:06.209Z,5.51
2019-02-25T01:59:13.526Z,5.46
2019-02-25T02:00:20.288Z,5.22
2019-02-25T02:01:27.389Z,5.09
2019-02-25T02:02:35.161Z,5.26
2019-02-25T02:03:41.001Z,5.44
2019-02-25T02:04:48.595Z,5.37
2019-02-25T02:05:55.423Z,5.16
2019-02-25T02:07:01.382Z,5.09
2019-02-25T02:08:08.342Z,5.27
2019-02-25T02:09:16.372Z,5.44
2019-02-25T02:10:22.393Z,5.34
2019-02-25T02:11:28.951Z,5.13
2019-02-25T02:12:36.085Z,5.12
2019-02-25T02:13:41.957Z,5.32
2019-02-25T02:14:48.376Z,5.43
2019-02-25T02:15:55.489Z,5.24
2019-02-25T02:17:01.536Z,5.05
2019-02-25T02:18:08.908Z,5.11
2019-02-25T02:19:15.990Z,5.33
2019-02-25T02:20:22.352Z,5.41
2019-02-25T02:21:30.228Z,5.24
2019-02-25T02:22:36.181Z,5.06
2019-02-25T02:23:43.023Z,5.18
2019-02-25T02:24:50.323Z,5.37
2019-02-25T02:25:56.734Z,5.34
2019-02-25T02:27:03.571Z,5.15
2019-02-25T02:28:10.731Z,5.08
2019-02-25T02:29:16.465Z,5.20
2019-02-25T02:30:24.209Z,5.39
2019-02-25T02:31:30.668Z,5.30
2019-02-25T02:32:37.696Z,5.08
2019-02-25T02:33:46.558Z,5.06
2019-02-25T02:34:52.973Z,5.24
2019-02-25T02:35:59.466Z,5.40
2019-02-25T02:37:05.663Z,5.26
2019-02-25T02:38:11.528Z,5.09
2019-02-25T02:39:17.946Z,5.13
2019-02-25T02:40:25.139Z,5.33
2019-02-25T02:41:32.398Z,5.39
2019-02-25T02:42:39.383Z,5.15
2019-02-25T02:43:45.546Z,5.05
2019-02-25T02:44:55.015Z,5.18
2019-02-25T02:46:09.558Z,5.34
2019-02-25T02:47:39.576Z,5.22
2019-02-25T02:48:56.700Z,5.04
2019-02-25T02:50:06.687Z,5.22
2019-02-25T02:51:13.109Z,5.34
2019-02-25T02:52:19.489Z,5.26
2019-02-25T02:53:26.618Z,5.05
2019-02-25T02:54:33.141Z,5.05
2019-02-25T02:55:39.568Z,5.20
2019-02-25T02:56:45.619Z,5.39
2019-02-25T02:57:52.298Z,5.29
2019-02-25T02:58:59.443Z,5.11
2019-02-25T03:00:09.924Z,5.08
2019-02-25T03:01:16.803Z,5.26
2019-02-25T03:02:23.665Z,5.37
2019-02-25T03:03:29.707Z,5.23
2019-02-25T03:04:38.515Z,5.09
2019-02-25T03:05:46.462Z,5.16
2019-02-25T03:06:52.451Z,5.39
2019-02-25T03:07:58.948Z,5.36
2019-02-25T03:09:07.407Z,5.13
2019-02-25T03:10:20.007Z,4.99
2019-02-25T03:11:27.387Z,5.13
2019-02-25T03:12:33.549Z,5.36
2019-02-25T03:13:40.708Z,5.33
2019-02-25T03:14:47.294Z,5.13
2019-02-25T03:15:53.700Z,5.02
2019-02-25T03:17:00.325Z,5.13
2019-02-25T03:18:08.134Z,5.37
2019-02-25T03:19:14.555Z,5.37
2019-02-25T03:20:21.584Z,5.15
2019-02-25T03:21:28.366Z,4.99
2019-02-25T03:22:34.112Z,5.09
2019-02-25T03:23:40.775Z,5.30
2019-02-25T03:24:47.520Z,5.41
2019-02-25T03:25:53.479Z,5.20
2019-02-25T03:27:00.006Z,4.98
2019-02-25T03:28:07.126Z,5.08
2019-02-25T03:29:12.755Z,5.30
2019-02-25T03:30:22.435Z,5.37
2019-02-25T03:31:30.041Z,5.18
2019-02-25T03:32:36.770Z,5.01
2019-02-25T03:33:43.628Z,5.09
2019-02-25T03:34:49.878Z,5.27
2019-02-25T03:35:56.243Z,5.36
2019-02-25T03:37:03.136Z,5.15
2019-02-25T03:38:09.041Z,4.99
2019-02-25T03:39:15.324Z,5.09
2019-02-25T03:40:25.155Z,5.24
2019-02-25T03:41:31.660Z,5.33
2019-02-25T03:42:38.402Z,5.15
2019-02-25T03:43:45.130Z,5.05
2019-02-25T03:44:51.360Z,5.16
2019-02-25T03:45:59.491Z,5.33
2019-02-25T03:47:06.260Z,5.26
2019-02-25T03:48:12.099Z,5.08
2019-02-25T03:49:19.305Z,5.08
2019-02-25T03:50:26.151Z,5.23
2019-02-25T03:51:32.870Z,5.36
2019-02-25T03:52:41.373Z,5.20
2019-02-25T03:53:47.131Z,4.98
2019-02-25T03:54:53.438Z,4.99
2019-02-25T03:55:59.762Z,5.12
2019-02-25T03:57:05.987Z,5.24
2019-02-25T03:58:12.947Z,5.30
2019-02-25T03:59:20.541Z,5.12
2019-02-25T04:00:26.986Z,4.96
2019-02-25T04:01:33.553Z,5.06
2019-02-25T04:02:40.341Z,5.20
2019-02-25T04:03:46.397Z,5.30
2019-02-25T04:04:52.970Z,5.19
2019-02-25T04:05:59.310Z,5.02
2019-02-25T04:07:05.417Z,5.01
2019-02-25T04:08:11.647Z,5.13
2019-02-25T04:09:20.031Z,5.29
2019-02-25T04:10:26.048Z,5.24
2019-02-25T04:11:32.184Z,5.02
2019-02-25T04:12:39.335Z,4.96
2019-02-25T04:13:45.424Z,5.06
2019-02-25T04:14:52.517Z,5.18
2019-02-25T04:16:01.744Z,5.30
2019-02-25T04:17:07.768Z,5.15
2019-02-25T04:18:15.312Z,4.96
2019-02-25T04:19:23.344Z,5.02
2019-02-25T04:20:29.894Z,5.11
2019-02-25T04:21:36.808Z,5.24
2019-02-25T04:22:43.296Z,5.29
2019-02-25T04:23:50.350Z,5.09
2019-02-25T04:24:56.495Z,5.02
2019-02-25T04:26:03.933Z,5.06
2019-02-25T04:27:11.340Z,5.22
2019-02-25T04:28:18.832Z,5.32
2019-02-25T04:29:24.648Z,5.13
2019-02-25T04:30:31.781Z,4.99
2019-02-25T04:31:40.204Z,5.09
2019-02-25T04:32:46.244Z,5.23
2019-02-25T04:33:53.631Z,5.39
2019-02-25T04:35:01.717Z,5.22
2019-02-25T04:36:09.446Z,4.98
2019-02-25T04:37:16.163Z,5.04
2019-02-25T04:38:22.425Z,5.23
2019-02-25T04:39:29.041Z,5.36
2019-02-25T04:40:35.791Z,5.22
2019-02-25T04:41:41.789Z,5.01
2019-02-25T04:42:49.331Z,5.04
2019-02-25T04:43:56.514Z,5.22
2019-02-25T04:45:02.707Z,5.34
2019-02-25T04:46:10.509Z,5.20
2019-02-25T04:47:16.925Z,5.01
2019-02-25T04:48:23.403Z,5.08
2019-02-25T04:49:30.690Z,5.32
2019-02-25T04:50:36.745Z,5.37
2019-02-25T04:51:42.690Z,5.11
2019-02-25T04:52:49.822Z,4.95
2019-02-25T04:53:56.317Z,5.05
2019-02-25T04:55:02.571Z,5.24
2019-02-25T04:56:09.061Z,5.34
2019-02-25T04:57:15.369Z,5.13
2019-02-25T04:58:21.411Z,5.01
2019-02-25T04:59:27.760Z,5.09
2019-02-25T05:00:34.676Z,5.23
2019-02-25T05:01:40.910Z,5.32
2019-02-25T05:02:48.575Z,5.12
2019-02-25T05:03:55.252Z,4.98
2019-02-25T05:05:01.695Z,5.08
2019-02-25T05:06:09.507Z,5.27
2019-02-25T05:07:15.451Z,5.53
2019-02-25T05:08:22.036Z,5.71
2019-02-25T05:09:29.285Z,5.88
2019-02-25T05:10:35.986Z,6.08
2019-02-25T05:11:42.608Z,6.29
2019-02-25T05:12:55.538Z,6.52
2019-02-25T05:14:01.589Z,6.63
2019-02-25T05:15:10.538Z,6.37
2019-02-25T05:16:17.644Z,5.91
2019-02-25T05:17:24.064Z,5.37
2019-02-25T05:18:30.704Z,4.96
2019-02-25T05:19:37.237Z,4.85
2019-02-25T05:20:43.407Z,5.09
2019-02-25T05:21:50.102Z,5.43
2019-02-25T05:22:56.682Z,5.82
2019-02-25T05:24:04.783Z,6.20
2019-02-25T05:25:13.410Z,6.51
2019-02-25T05:26:19.167Z,6.82
2019-02-25T05:27:25.954Z,7.04
2019-02-25T05:28:33.675Z,7.20
2019-02-25T05:29:39.648Z,7.37
2019-02-25T05:30:46.290Z,7.51
2019-02-25T05:31:53.289Z,7.61
2019-02-25T05:32:59.241Z,7.72
2019-02-25T05:34:06.269Z,7.83
2019-02-25T05:35:14.025Z,7.93
2019-02-25T05:36:20.350Z,8.11
2019-02-25T05:37:27.384Z,8.28
2019-02-25T05:38:34.092Z,8.35
2019-02-25T05:39:40.122Z,8.13
2019-02-25T05:40:48.164Z,7.66
2019-02-25T05:41:55.216Z,7.21
2019-02-25T05:43:01.987Z,6.79
2019-02-25T05:44:09.207Z,6.36
2019-02-25T05:45:16.024Z,5.96
2019-02-25T05:46:22.004Z,5.73
2019-02-25T05:47:30.084Z,5.78
2019-02-25T05:48:36.189Z,6.01
2019-02-25T05:49:42.958Z,6.34
2019-02-25T05:50:49.650Z,6.76
2019-02-25T05:51:55.990Z,7.07
2019-02-25T05:53:03.272Z,7.35
2019-02-25T05:54:10.176Z,7.63
2019-02-25T05:55:18.321Z,7.92
2019-02-25T05:56:25.059Z,8.10
2019-02-25T05:57:31.660Z,8.27
2019-02-25T05:58:39.038Z,8.47
2019-02-25T05:59:46.309Z,8.56
2019-02-25T06:00:52.449Z,8.75
2019-02-25T06:01:58.563Z,8.86
2019-02-25T06:03:05.423Z,8.96
2019-02-25T06:04:11.413Z,9.06
2019-02-25T06:05:18.053Z,9.21
2019-02-25T06:06:24.874Z,9.35
2019-02-25T06:07:30.671Z,9.34
2019-02-25T06:08:37.487Z,9.03
2019-02-25T06:09:45.092Z,8.51
2019-02-25T06:10:50.777Z,7.99
2019-02-25T06:11:56.826Z,7.47
2019-02-25T06:13:03.645Z,7.03
2019-02-25T06:14:09.738Z,7.06
2019-02-25T06:15:22.279Z,7.24
2019-02-25T06:16:29.356Z,7.55
2019-02-25T06:17:37.748Z,7.86
2019-02-25T06:18:43.946Z,8.04
2019-02-25T06:19:51.121Z,8.20
2019-02-25T06:20:57.201Z,8.38
2019-02-25T06:22:04.871Z,8.49
2019-02-25T06:23:11.822Z,8.67
2019-02-25T06:24:18.339Z,8.75
2019-02-25T06:25:25.524Z,8.84
2019-02-25T06:26:31.421Z,8.87
2019-02-25T06:27:38.495Z,8.92
2019-02-25T06:28:45.212Z,8.94
2019-02-25T06:29:51.798Z,8.97
2019-02-25T06:30:58.399Z,9.04
2019-02-25T06:32:04.763Z,9.04
2019-02-25T06:33:10.781Z,9.11
2019-02-25T06:34:19.251Z,9.18
2019-02-25T06:35:26.391Z,9.20
2019-02-25T06:36:34.267Z,9.25
2019-02-25T06:37:41.124Z,9.22
2019-02-25T06:38:47.165Z,9.29
2019-02-25T06:39:54.744Z,9.34
2019-02-25T06:41:01.217Z,9.32
2019-02-25T06:42:08.455Z,9.32
2019-02-25T06:43:15.593Z,9.28
2019-02-25T06:44:21.993Z,9.24
2019-02-25T06:45:35.318Z,9.22
2019-02-25T06:46:43.395Z,9.20
2019-02-25T06:47:50.403Z,9.20
2019-02-25T06:48:58.000Z,9.21
2019-02-25T06:50:05.607Z,9.25
2019-02-25T06:51:14.238Z,9.25
2019-02-25T06:52:20.519Z,9.21
2019-02-25T06:53:30.090Z,9.21
2019-02-25T06:54:36.782Z,9.21
2019-02-25T06:55:44.392Z,9.15
2019-02-25T06:56:50.882Z,9.18
2019-02-25T06:57:57.522Z,9.20
2019-02-25T06:59:04.678Z,9.17
2019-02-25T07:00:21.460Z,9.17
2019-02-25T07:01:28.588Z,9.18
2019-02-25T07:02:35.410Z,9.25
2019-02-25T07:03:44.264Z,9.35
2019-02-25T07:04:59.202Z,9.39
2019-02-25T07:06:08.667Z,9.45
2019-02-25T07:07:19.535Z,9.50
2019-02-25T07:08:26.181Z,9.53
2019-02-25T07:09:50.625Z,9.56
2019-02-25T07:12:23.414Z,9.55
2019-02-25T07:13:34.874Z,9.52
2019-02-25T07:14:43.794Z,9.50
2019-02-25T07:15:59.522Z,9.52
2019-02-25T07:17:13.806Z,9.55
2019-02-25T07:18:36.304Z,9.59
2019-02-25T07:19:47.822Z,9.60
2019-02-25T07:20:55.611Z,9.72
2019-02-25T07:22:13.761Z,9.69
2019-02-25T07:23:33.609Z,9.63
2019-02-25T07:24:55.070Z,9.65
2019-02-25T07:26:03.312Z,9.63
2019-02-25T07:27:11.935Z,9.66
2019-02-25T07:28:36.705Z,9.66
2019-02-25T07:30:01.088Z,9.65
2019-02-25T07:31:25.203Z,9.72
2019-02-25T07:32:36.922Z,9.72
2019-02-25T07:33:46.932Z,9.79
2019-02-25T07:34:58.521Z,9.76
2019-02-25T07:36:09.397Z,9.72
2019-02-25T07:37:34.122Z,9.67
2019-02-25T07:38:51.949Z,9.62
2019-02-25T07:40:13.972Z,9.62
2019-02-25T07:41:23.783Z,9.66
2019-02-25T07:42:51.318Z,9.67
2019-02-25T07:44:09.390Z,9.69
2019-02-25T07:45:34.563Z,9.73
2019-02-25T07:46:48.940Z,9.70
2019-02-25T07:47:57.113Z,9.73
2019-02-25T07:49:11.982Z,9.74
2019-02-25T07:50:27.848Z,9.74
2019-02-25T07:51:39.408Z,9.70
2019-02-25T07:52:49.982Z,9.70
2019-02-25T07:53:58.817Z,9.69
2019-02-25T07:55:14.969Z,9.73
2019-02-25T07:56:28.544Z,9.69
2019-02-25T07:57:44.835Z,9.67
2019-02-25T07:59:16.436Z,9.66
2019-02-25T08:00:51.169Z,9.70
2019-02-25T08:02:18.179Z,9.73
2019-02-25T08:03:31.160Z,9.84
2019-02-25T08:04:43.242Z,9.96
2019-02-25T08:06:02.964Z,9.97
2019-02-25T08:07:17.271Z,10.01
2019-02-25T08:08:33.519Z,10.02
2019-02-25T08:09:43.237Z,10.01
2019-02-25T08:10:51.838Z,10.02
2019-02-25T08:11:59.679Z,10.05
2019-02-25T08:13:07.840Z,10.08
2019-02-25T08:14:27.110Z,10.07
2019-02-25T08:15:34.873Z,10.02
2019-02-25T08:16:50.430Z,10.04
2019-02-25T08:18:14.434Z,9.96
2019-02-25T08:19:22.826Z,9.91
2019-02-25T08:20:32.030Z,9.94
2019-02-25T08:21:45.590Z,9.96
2019-02-25T08:23:09.726Z,10.01
2019-02-25T08:24:17.228Z,10.02
2019-02-25T08:25:30.336Z,10.08
2019-02-25T08:26:40.852Z,10.18
2019-02-25T08:27:50.980Z,10.26
2019-02-25T08:29:05.302Z,10.42
2019-02-25T08:30:27.020Z,10.57
2019-02-25T08:31:44.793Z,10.63
2019-02-25T08:32:56.059Z,10.71
2019-02-25T08:34:18.288Z,10.73
2019-02-25T08:35:45.039Z,10.29
2019-02-25T08:37:12.333Z,9.74
2019-02-25T08:38:22.980Z,9.14
2019-02-25T08:39:32.053Z,8.67
2019-02-25T08:40:50.553Z,8.42
2019-02-25T08:41:58.580Z,8.53
2019-02-25T08:43:12.653Z,8.83
2019-02-25T08:44:32.639Z,9.17
2019-02-25T08:45:41.382Z,9.43
2019-02-25T08:46:52.293Z,9.69
2019-02-25T08:48:02.778Z,9.86
2019-02-25T08:49:13.024Z,9.96
2019-02-25T08:50:18.840Z,10.04
2019-02-25T08:51:24.897Z,10.17
2019-02-25T08:52:30.512Z,10.26
2019-02-25T08:53:37.027Z,10.36
2019-02-25T08:54:44.273Z,10.46
2019-02-25T08:55:50.761Z,10.52
2019-02-25T08:56:56.574Z,10.64
2019-02-25T08:58:02.613Z,10.73
2019-02-25T08:59:08.673Z,10.67
2019-02-25T09:00:15.814Z,10.35
2019-02-25T09:01:22.248Z,9.96
2019-02-25T09:02:29.172Z,9.46
2019-02-25T09:03:36.013Z,9.00
2019-02-25T09:04:42.073Z,8.55
2019-02-25T09:05:48.213Z,8.27
2019-02-25T09:06:54.895Z,8.47
2019-02-25T09:08:01.363Z,8.92
2019-02-25T09:09:07.813Z,9.46
2019-02-25T09:10:15.720Z,9.86
2019-02-25T09:11:22.194Z,10.14
2019-02-25T09:12:30.033Z,10.29
2019-02-25T09:13:36.476Z,10.40
2019-02-25T09:14:42.653Z,10.55
2019-02-25T09:15:48.894Z,10.63
2019-02-25T09:16:55.373Z,10.70
2019-02-25T09:17:59.808Z,10.59
2019-02-25T09:19:05.640Z,10.24
2019-02-25T09:20:11.413Z,9.82
2019-02-25T09:21:17.182Z,9.35
2019-02-25T09:22:22.880Z,8.97
2019-02-25T09:23:28.574Z,8.63
2019-02-25T09:24:34.954Z,8.37
2019-02-25T09:25:42.254Z,8.42
2019-02-25T09:26:48.213Z,8.63
2019-02-25T09:27:54.516Z,8.80
2019-02-25T09:29:00.530Z,9.00
2019-02-25T09:30:16.129Z,9.11
2019-02-25T09:31:23.000Z,9.21
2019-02-25T09:32:30.530Z,9.32
2019-02-25T09:33:36.676Z,9.55
2019-02-25T09:34:43.232Z,9.80
2019-02-25T09:35:49.552Z,10.05
2019-02-25T09:36:55.534Z,10.31
2019-02-25T09:38:01.819Z,10.56
2019-02-25T09:39:12.073Z,10.64
2019-02-25T09:40:20.253Z,10.36
2019-02-25T09:41:29.997Z,9.90
2019-02-25T09:42:34.412Z,9.50
2019-02-25T09:43:41.863Z,9.07
2019-02-25T09:44:48.375Z,8.69
2019-02-25T09:45:55.022Z,8.38
2019-02-25T09:47:00.894Z,8.17
2019-02-25T09:48:06.933Z,8.32
2019-02-25T09:49:12.888Z,8.72
2019-02-25T09:50:21.149Z,9.18
2019-02-25T09:51:26.922Z,9.62
2019-02-25T09:52:32.893Z,9.96
2019-02-25T09:53:38.913Z,10.22
2019-02-25T09:54:44.853Z,10.43
2019-02-25T09:55:50.793Z,10.53
2019-02-25T09:56:56.681Z,10.32
2019-02-25T09:58:02.942Z,9.94
2019-02-25T09:59:09.120Z,9.50
2019-02-25T10:00:18.935Z,9.04
2019-02-25T10:01:26.581Z,8.58
2019-02-25T10:02:32.733Z,8.20
2019-02-25T10:03:38.773Z,7.97
2019-02-25T10:04:45.520Z,8.17
2019-02-25T10:05:51.476Z,8.56
2019-02-25T10:07:02.274Z,9.01
2019-02-25T10:08:06.014Z,9.43
2019-02-25T10:09:12.698Z,9.73
2019-02-25T10:10:20.301Z,10.00
2019-02-25T10:11:26.973Z,10.22
2019-02-25T10:12:32.773Z,10.28
2019-02-25T10:13:40.033Z,10.14
2019-02-25T10:14:46.514Z,9.86
2019-02-25T10:15:52.454Z,9.55
2019-02-25T10:16:58.376Z,9.24
2019-02-25T10:18:04.273Z,8.90
2019-02-25T10:19:10.233Z,8.55
2019-02-25T10:20:16.070Z,8.28
2019-02-25T10:21:21.793Z,8.11
2019-02-25T10:22:27.700Z,8.37
2019-02-25T10:23:34.213Z,8.86
2019-02-25T10:24:40.034Z,9.32
2019-02-25T10:25:46.453Z,9.63
2019-02-25T10:26:52.921Z,9.93
2019-02-25T10:27:58.574Z,10.25
2019-02-25T10:29:04.833Z,10.37
2019-02-25T10:30:17.675Z,10.25
2019-02-25T10:31:23.460Z,10.04
2019-02-25T10:32:30.238Z,9.76
2019-02-25T10:33:36.414Z,9.39
2019-02-25T10:34:42.494Z,9.08
2019-02-25T10:35:48.654Z,8.79
2019-02-25T10:36:54.513Z,8.55
2019-02-25T10:38:03.034Z,8.34
2019-02-25T10:39:13.049Z,8.21
2019-02-25T10:40:23.982Z,8.49
2019-02-25T10:41:27.919Z,9.00
2019-02-25T10:42:35.622Z,9.46
2019-02-25T10:43:42.121Z,9.91
2019-02-25T10:44:50.201Z,10.29
2019-02-25T10:45:57.133Z,10.60
2019-02-25T10:47:04.441Z,10.76
2019-02-25T10:48:10.393Z,10.64
2019-02-25T10:49:16.135Z,10.36
2019-02-25T10:50:21.999Z,10.08
2019-02-25T10:51:27.745Z,9.76
2019-02-25T10:52:33.453Z,9.48
2019-02-25T10:53:39.779Z,9.20
2019-02-25T10:54:45.479Z,8.92
2019-02-25T10:56:05.042Z,8.63
2019-02-25T10:57:10.974Z,8.38
2019-02-25T10:58:17.474Z,8.28
2019-02-25T10:59:23.601Z,8.56
2019-02-25T11:00:29.414Z,9.06
2019-02-25T11:01:37.541Z,9.50
2019-02-25T11:02:44.452Z,9.86
2019-02-25T11:03:52.640Z,10.19
2019-02-25T11:05:00.054Z,10.47
2019-02-25T11:06:06.193Z,10.64
2019-02-25T11:07:13.053Z,10.50
2019-02-25T11:08:20.580Z,10.19
2019-02-25T11:09:37.874Z,9.89
2019-02-25T11:10:50.781Z,9.52
2019-02-25T11:12:00.058Z,9.24
2019-02-25T11:13:06.155Z,9.01
2019-02-25T11:14:12.441Z,8.86
2019-02-25T11:15:18.479Z,8.75
2019-02-25T11:16:25.135Z,8.59
2019-02-25T11:17:31.974Z,8.53
2019-02-25T11:18:37.834Z,8.84
2019-02-25T11:19:43.653Z,9.38
2019-02-25T11:20:50.440Z,9.91
2019-02-25T11:21:56.181Z,10.37
2019-02-25T11:23:02.134Z,10.83
2019-02-25T11:24:07.914Z,11.07
2019-02-25T11:25:15.577Z,10.94
2019-02-25T11:26:23.774Z,10.64
2019-02-25T11:27:31.331Z,10.29
2019-02-25T11:28:39.215Z,9.98
2019-02-25T11:29:46.229Z,9.66
2019-02-25T11:30:53.773Z,9.42
2019-02-25T11:32:00.560Z,9.24
2019-02-25T11:33:06.760Z,9.03
2019-02-25T11:34:13.254Z,8.87
2019-02-25T11:35:20.021Z,8.75
2019-02-25T11:36:26.821Z,8.75
2019-02-25T11:37:32.715Z,9.17
2019-02-25T11:38:38.483Z,9.80
2019-02-25T11:39:44.761Z,10.35
2019-02-25T11:40:51.021Z,10.80
2019-02-25T11:41:57.941Z,11.11
2019-02-25T11:43:03.794Z,11.02
2019-02-25T11:44:09.527Z,10.79
2019-02-25T11:45:22.439Z,10.46
2019-02-25T11:46:28.274Z,10.12
2019-02-25T11:47:35.054Z,9.86
2019-02-25T11:48:41.633Z,9.60
2019-02-25T11:49:47.894Z,9.34
2019-02-25T11:50:53.571Z,9.12
2019-02-25T11:51:59.334Z,8.94
2019-02-25T11:53:05.674Z,8.73
2019-02-25T11:54:11.662Z,8.55
2019-02-25T11:55:17.994Z,8.48
2019-02-25T11:56:24.325Z,8.79
2019-02-25T11:57:30.322Z,9.29
2019-02-25T11:58:36.038Z,9.79
2019-02-25T11:59:42.083Z,10.18
2019-02-25T12:00:47.844Z,10.55
2019-02-25T12:01:53.882Z,10.74
2019-02-25T12:02:59.616Z,10.66
2019-02-25T12:04:05.774Z,10.46
2019-02-25T12:05:12.475Z,10.18
2019-02-25T12:06:19.413Z,9.97
2019-02-25T12:07:25.962Z,9.72
2019-02-25T12:08:32.336Z,9.50
2019-02-25T12:09:38.914Z,9.32
2019-02-25T12:10:45.155Z,9.12
2019-02-25T12:11:50.861Z,8.99
2019-02-25T12:12:56.715Z,8.84
2019-02-25T12:14:03.061Z,8.70
2019-02-25T12:15:27.562Z,8.55
2019-02-25T12:16:35.137Z,8.41
2019-02-25T12:17:40.874Z,8.32
2019-02-25T12:18:47.576Z,8.38
2019-02-25T12:19:54.115Z,8.80
2019-02-25T12:20:59.981Z,9.37
2019-02-25T12:22:05.795Z,9.96
2019-02-25T12:23:11.814Z,10.52
2019-02-25T12:24:17.529Z,10.91
2019-02-25T12:25:25.191Z,10.94
2019-02-25T12:26:30.901Z,10.70
2019-02-25T12:27:37.142Z,10.42
2019-02-25T12:28:43.742Z,10.11
2019-02-25T12:29:51.057Z,9.86
2019-02-25T12:30:56.936Z,9.57
2019-02-25T12:32:03.195Z,9.39
2019-02-25T12:33:10.834Z,9.15
2019-02-25T12:34:18.303Z,8.99
2019-02-25T12:35:23.980Z,8.79
2019-02-25T12:36:30.354Z,8.65
2019-02-25T12:37:37.261Z,8.55
2019-02-25T12:38:43.376Z,8.44
2019-02-25T12:39:49.401Z,8.34
2019-02-25T12:40:55.781Z,8.24
2019-02-25T12:42:01.705Z,8.20
2019-02-25T12:43:08.504Z,8.24
2019-02-25T12:44:14.334Z,8.75
2019-02-25T12:45:22.255Z,9.41
2019-02-25T12:46:28.673Z,10.04
2019-02-25T12:47:34.634Z,10.57
2019-02-25T12:48:41.186Z,10.92
2019-02-25T12:49:47.222Z,10.91
2019-02-25T12:50:53.055Z,10.74
2019-02-25T12:51:58.921Z,10.52
2019-02-25T12:53:04.962Z,10.28
2019-02-25T12:54:12.035Z,10.04
2019-02-25T12:55:19.543Z,9.83
2019-02-25T12:56:25.373Z,9.65
2019-02-25T12:57:31.854Z,9.48
2019-02-25T12:58:37.874Z,9.32
2019-02-25T12:59:43.711Z,9.18
2019-02-25T13:00:49.560Z,9.10
2019-02-25T13:01:55.961Z,9.00
2019-02-25T13:03:01.741Z,8.89
2019-02-25T13:04:08.312Z,8.80
2019-02-25T13:05:24.554Z,8.69
2019-02-25T13:06:30.334Z,8.60
2019-02-25T13:07:36.082Z,8.53
2019-02-25T13:08:41.802Z,8.45
2019-02-25T13:09:47.662Z,8.41
2019-02-25T13:10:53.410Z,8.35
2019-02-25T13:11:59.650Z,8.31
2019-02-25T13:13:05.621Z,8.31
2019-02-25T13:14:12.641Z,8.34
2019-02-25T13:15:24.258Z,8.35
2019-02-25T13:16:30.935Z,8.32
2019-02-25T13:17:37.181Z,8.37
2019-02-25T13:18:44.615Z,8.38
2019-02-25T13:19:51.502Z,8.38
2019-02-25T13:20:57.680Z,8.39
2019-02-25T13:22:03.475Z,8.41
2019-02-25T13:23:09.238Z,8.42
2019-02-25T13:24:15.494Z,8.41
2019-02-25T13:25:34.222Z,8.42
2019-02-25T13:26:40.345Z,8.44
2019-02-25T13:27:46.454Z,8.44
2019-02-25T13:28:52.375Z,8.44
2019-02-25T13:29:58.862Z,8.45
2019-02-25T13:31:06.405Z,8.44
2019-02-25T13:32:13.035Z,8.44
2019-02-25T13:33:20.376Z,8.44
2019-02-25T13:34:27.623Z,8.42
2019-02-25T13:35:33.375Z,8.44
2019-02-25T13:36:39.322Z,8.42
2019-02-25T13:37:46.916Z,8.42
2019-02-25T13:38:52.854Z,8.45
2019-02-25T13:39:59.214Z,8.45
2019-02-25T13:41:05.122Z,8.45
2019-02-25T13:42:11.234Z,8.45
2019-02-25T13:43:17.784Z,8.47
2019-02-25T13:44:25.065Z,8.48
2019-02-25T13:45:32.662Z,8.47
2019-02-25T13:46:38.994Z,8.45
2019-02-25T13:47:45.445Z,8.47
2019-02-25T13:48:51.601Z,8.48
2019-02-25T13:49:58.276Z,8.47
2019-02-25T13:51:04.830Z,8.47
2019-02-25T13:52:12.191Z,8.45
2019-02-25T13:53:18.322Z,8.47
2019-02-25T13:54:24.195Z,8.44
2019-02-25T13:55:30.142Z,8.42
2019-02-25T13:56:36.089Z,8.38
2019-02-25T13:57:42.816Z,8.38
2019-02-25T13:58:48.897Z,8.34
2019-02-25T13:59:54.642Z,8.30
2019-02-25T14:01:00.575Z,8.30
2019-02-25T14:02:09.302Z,8.27
2019-02-25T14:03:15.302Z,8.24
2019-02-25T14:04:22.835Z,8.21
2019-02-25T14:05:29.094Z,8.34
2019-02-25T14:06:35.223Z,8.84
2019-02-25T14:07:43.195Z,9.52
2019-02-25T14:08:49.785Z,10.15
2019-02-25T14:09:56.375Z,10.69
2019-02-25T14:11:02.334Z,11.07
2019-02-25T14:12:08.338Z,11.04
2019-02-25T14:13:15.982Z,10.91
2019-02-25T14:14:22.235Z,10.66
2019-02-25T14:15:28.222Z,10.39
2019-02-25T14:16:34.743Z,10.17
2019-02-25T14:17:41.335Z,9.97
2019-02-25T14:18:47.006Z,9.82
2019-02-25T14:19:53.797Z,9.69
2019-02-25T14:21:01.724Z,9.56
2019-02-25T14:22:07.483Z,9.48
2019-02-25T14:23:16.069Z,9.37
2019-02-25T14:24:21.399Z,9.28
2019-02-25T14:25:33.263Z,9.20
2019-02-25T14:26:39.282Z,9.12
2019-02-25T14:27:45.466Z,9.04
2019-02-25T14:28:51.737Z,9.00
2019-02-25T14:29:57.886Z,8.96
2019-02-25T14:31:03.717Z,8.93
2019-02-25T14:32:10.926Z,8.89
2019-02-25T14:33:17.337Z,8.86
2019-02-25T14:34:24.848Z,8.80
2019-02-25T14:35:32.965Z,8.75
2019-02-25T14:36:39.462Z,8.73
2019-02-25T14:37:46.162Z,8.66
2019-02-25T14:38:54.215Z,8.62
2019-02-25T14:40:03.495Z,8.58
2019-02-25T14:41:09.029Z,8.55
2019-02-25T14:42:16.633Z,8.51
2019-02-25T14:43:25.485Z,8.49
2019-02-25T14:44:35.195Z,8.47
2019-02-25T14:45:42.077Z,8.47
2019-02-25T14:46:48.663Z,8.42
2019-02-25T14:47:57.496Z,8.42
2019-02-25T14:49:02.636Z,8.38
2019-02-25T14:50:16.323Z,8.35
2019-02-25T14:51:22.835Z,8.31
2019-02-25T14:52:31.760Z,8.28
2019-02-25T14:53:37.879Z,8.25
2019-02-25T14:54:45.762Z,8.22
2019-02-25T14:55:53.221Z,8.17
2019-02-25T14:56:59.697Z,8.13
2019-02-25T14:58:07.379Z,8.10
2019-02-25T14:59:15.205Z,8.06
2019-02-25T15:00:26.143Z,8.00